Flight Track Log - Related Links

Times and Time Zones

All times are in EDT time to prevent confusion due to time zone crossing. See the N1944E flight status page for this flight to view local times or setup timezone preferences in your user account.

Time Position Orientation Groundspeed Altitude Reporting Facility
EDT Latitude Longitude Course Direction KTS MPH feet Rate Location/Type
Wed 08:50:57 AM 44.4956 -109.0742 235° Southwest 140 161 10,800  Level Salt Lake Center
Wed 08:51:57 AM 44.4711 -109.1186 232° Southwest 142 163 11,800 992 Climbing Salt Lake Center
Wed 08:52:58 AM 44.4486 -109.1681 237° Southwest 147 169 12,800 984 Climbing Salt Lake Center
Wed 08:53:59 AM 44.4253 -109.2178 237° Southwest 152 175 13,800 992 Climbing Salt Lake Center
Wed 08:54:59 AM 44.3972 -109.2642 230° Southwest 154 177 14,800 1,091 Climbing Salt Lake Center
Wed 08:56:00 AM 44.3500 -109.3512 235° Southwest  Level Estimated
Wed 08:56:00 AM 44.3639 -109.3228 232° Southwest 161 185 16,000  Level Salt Lake Center
Wed 08:57:01 AM 44.3367 -109.3806 237° Southwest 172 198 16,200 50 Climbing Salt Lake Center
Wed 08:58:01 AM 44.3025 -109.4425 232° Southwest 194 223 16,100 -50 Descending Salt Lake Center
Wed 08:59:02 AM 44.2733 -109.5022 236° Southwest 199 229 16,100  Level Salt Lake Center
Wed 09:00:03 AM 44.2372 -109.5711 234° Southwest 198 228 16,100 -50 Level Salt Lake Center
Wed 09:01:03 AM 44.2039 -109.6314 232° Southwest 202 232 16,000 -50 Descending Salt Lake Center
Wed 09:02:04 AM 44.1708 -109.6931 233° Southwest 205 236 16,000  Level Salt Lake Center
Wed 09:03:05 AM 44.1381 -109.7517 232° Southwest 203 234 16,000 -50 Level Salt Lake Center
Wed 09:04:05 AM 44.1036 -109.8236 236° Southwest 200 230 15,900  Descending Salt Lake Center
Wed 09:05:06 AM 44.0711 -109.8808 232° Southwest 198 228 16,000  Climbing Salt Lake Center
Wed 09:05:55 AM 44.0447 -109.9275 232° Southwest 195 224 15,900 -545 Descending Salt Lake Center
Wed 09:06:56 AM 44.0061 -110.0000 233° Southwest 204 235 15,000 -496 Descending Salt Lake Center
Wed 09:07:56 AM 43.9736 -110.0628 234° Southwest 209 241 14,900 -50 Descending Salt Lake Center
Wed 09:08:57 AM 43.9456 -110.1158 234° Southwest 189 217 14,900 -295 Level Salt Lake Center
Wed 09:09:58 AM 43.9169 -110.1675 232° Southwest 178 205 14,300 -443 Descending Salt Lake Center
Wed 09:10:59 AM 43.8811 -110.2364 234° Southwest 187 215 14,000 -492 Descending Salt Lake Center
Wed 09:12:00 AM 43.8544 -110.2950 238° Southwest 190 219 13,300 -694 Descending Salt Lake Center
Wed 09:13:00 AM 43.8289 -110.3558 240° Southwest 195 224 12,600 -744 Descending Salt Lake Center
Wed 09:14:01 AM 43.8417 -110.4339 283° West 190 219 11,800 -787 Descending Salt Lake Center
Wed 09:15:02 AM 43.8522 -110.5028 282° West 183 211 11,000 -590 Descending Salt Lake Center
Wed 09:16:03 AM 43.8558 -110.5642 275° West 167 192 10,600 -934 Descending Salt Lake Center
Wed 09:17:04 AM 43.8353 -110.6267 246° West 176 203 9,100 -1,180 Descending Salt Lake Center
Wed 09:18:05 AM 43.7872 -110.6569 204° Southwest 190 219 8,200 -541 Descending Salt Lake Center
Wed 09:19:06 AM 43.7414 -110.6711 193° South 179 206 8,000 -99 Descending Salt Lake Center
Wed 09:20:06 AM 43.7064 -110.6906 202° Southwest 155 178 8,000 -50 Level Salt Lake Center
Wed 09:21:07 AM 43.6750 -110.7047 198° South 134 154 7,900 -393 Descending Salt Lake Center
Wed 09:22:08 AM 43.6422 -110.7208 200° South 127 146 7,200 -639 Descending Salt Lake Center
Wed 09:23:09 AM 43.6136 -110.7344 199° South 117 135 6,600 -590 Descending Salt Lake Center
Wed 09:25:00 AM 43.6000 -110.7333 198° South  Level FlightAware Approximate
Wed 09:32:00 AM 43.6073 -110.7377 198° South  Level Estimated
Wed 09:33:00 AM 43.6073 -110.7377 198° South  Level Estimated
Wed 09:34:00 AM 43.6073 -110.7377 198° South  Level Estimated
Wed 09:35:00 AM 43.6073 -110.7377 198° South  Level Estimated
Wed 09:36:00 AM 43.6073 -110.7377 198° South  Level Estimated
Wed 09:37:00 AM 43.6073 -110.7377 198° South  Level Estimated

Login

Don't have an account? Register now (free) for customized features, flight alerts, and more!